createdAt,value
2023-02-08T00:00:22.510Z,31.8
2023-02-08T00:06:00.643Z,31.8
2023-02-08T00:11:37.139Z,31.8
2023-02-08T00:17:14.341Z,31.7
2023-02-08T00:22:53.411Z,31.7
2023-02-08T00:28:32.132Z,31.6
2023-02-08T00:33:54.266Z,31.6
2023-02-08T00:39:31.504Z,31.6
2023-02-08T00:45:09.714Z,31.6
2023-02-08T00:50:47.385Z,31.5
2023-02-08T00:56:25.020Z,31.5
2023-02-08T01:02:01.105Z,31.4
2023-02-08T01:07:53.711Z,31.4
2023-02-08T01:13:32.126Z,31.4
2023-02-08T01:23:59.641Z,31.4
2023-02-08T01:29:21.877Z,31.3
2023-02-08T01:34:44.375Z,31.3
2023-02-08T01:45:44.371Z,31.2
2023-02-08T01:51:20.853Z,31.2
2023-02-08T01:56:57.813Z,31.2
2023-02-08T02:02:36.120Z,31.1
2023-02-08T02:08:12.379Z,31.3
2023-02-08T02:13:49.450Z,31.6
2023-02-08T02:19:27.190Z,32.1
2023-02-08T02:25:06.683Z,32.7
2023-02-08T02:30:43.751Z,33.3
2023-02-08T02:36:21.360Z,33.9
2023-02-08T02:41:57.794Z,34.6
2023-02-08T02:47:34.917Z,35.3
2023-02-08T02:52:56.797Z,36
2023-02-08T02:58:33.351Z,36.6
2023-02-08T03:03:55.388Z,37.4
2023-02-08T03:09:18.246Z,38.1
2023-02-08T03:14:53.926Z,38.8
2023-02-08T03:20:29.906Z,39.3
2023-02-08T03:26:07.303Z,39.5
2023-02-08T03:31:29.237Z,39.6
2023-02-08T03:36:51.111Z,39.7
2023-02-08T03:42:28.935Z,39.8
2023-02-08T03:48:05.486Z,39.8
2023-02-08T03:53:42.669Z,39.8
2023-02-08T03:59:20.096Z,39.8
2023-02-08T04:10:02.128Z,39.7
2023-02-08T04:15:39.847Z,39.7
2023-02-08T04:21:16.155Z,39.6
2023-02-08T04:26:52.505Z,39.6
2023-02-08T04:32:31.593Z,39.6
2023-02-08T04:38:08.874Z,39.6
2023-02-08T04:43:45.888Z,39.6
2023-02-08T04:49:24.014Z,39.5
2023-02-08T04:55:02.121Z,39.5
2023-02-08T05:00:39.563Z,39.5
2023-02-08T05:06:17.340Z,39.4
2023-02-08T05:11:53.484Z,39.4
2023-02-08T05:17:33.883Z,39.4
2023-02-08T05:23:11.311Z,39.3
2023-02-08T05:28:49.401Z,39.3
2023-02-08T05:34:28.214Z,39.3
2023-02-08T05:40:06.768Z,39.3
2023-02-08T05:45:43.583Z,39.2
2023-02-08T05:51:07.772Z,39.1
2023-02-08T05:56:30.490Z,39.1
2023-02-08T06:02:07.235Z,39.1
2023-02-08T06:07:29.549Z,39.1
2023-02-08T06:12:52.560Z,39
2023-02-08T06:18:32.187Z,39
2023-02-08T06:24:09.571Z,38.9
2023-02-08T06:29:46.692Z,38.9
2023-02-08T06:35:27.539Z,38.8
2023-02-08T06:41:05.477Z,38.8
2023-02-08T06:46:52.615Z,38.8
2023-02-08T06:52:29.775Z,38.7
2023-02-08T06:58:06.628Z,38.7
2023-02-08T07:03:44.796Z,38.7
2023-02-08T07:09:29.018Z,38.6
2023-02-08T07:15:05.441Z,38.6
2023-02-08T07:20:28.144Z,38.6
2023-02-08T07:26:04.370Z,38.5
2023-02-08T07:31:41.170Z,38.4
2023-02-08T07:37:20.997Z,38.4
2023-02-08T07:42:57.031Z,51.3
2023-02-08T07:48:32.959Z,49
2023-02-08T07:54:10.767Z,46.5
2023-02-08T07:59:49.415Z,44.7
2023-02-08T08:05:35.784Z,43.4
2023-02-08T08:11:15.977Z,42.4
2023-02-08T08:16:37.187Z,50.8
2023-02-08T08:22:15.704Z,45.6
2023-02-08T08:27:54.074Z,59
2023-02-08T08:33:33.932Z,57.4
2023-02-08T08:39:11.514Z,58.3
2023-02-08T08:44:49.565Z,59.4
2023-02-08T08:50:10.573Z,60.4
2023-02-08T08:55:47.692Z,61.1
2023-02-08T09:01:09.563Z,61.8
2023-02-08T09:06:46.889Z,62.4
2023-02-08T09:12:23.615Z,63
2023-02-08T09:18:03.065Z,63.5
2023-02-08T09:23:40.721Z,63.9
2023-02-08T09:29:02.936Z,64.2
2023-02-08T09:34:42.458Z,62.8
2023-02-08T09:40:19.439Z,60.7
2023-02-08T09:45:45.309Z,59.4
2023-02-08T09:51:28.643Z,56.6
2023-02-08T09:57:07.661Z,59.4
2023-02-08T10:02:29.632Z,63.4
2023-02-08T10:08:07.798Z,64.7
2023-02-08T10:13:52.572Z,65.3
2023-02-08T10:19:14.503Z,65.9
2023-02-08T10:24:52.118Z,66.3
2023-02-08T10:30:15.274Z,66.4
2023-02-08T10:35:56.546Z,63.9
2023-02-08T10:41:53.242Z,59.2
2023-02-08T10:47:53.555Z,59.9
2023-02-08T10:53:36.700Z,53.9
2023-02-08T10:59:05.388Z,50.7
2023-02-08T11:04:52.692Z,58.8
2023-02-08T11:10:37.236Z,61.8
2023-02-08T11:16:28.210Z,63.7
2023-02-08T11:22:10.921Z,62.6
2023-02-08T11:27:54.350Z,60.1
2023-02-08T11:33:39.321Z,54.4
2023-02-08T11:39:22.306Z,62.1
2023-02-08T11:45:05.315Z,60.3
2023-02-08T11:50:46.340Z,63.3
2023-02-08T11:56:09.479Z,63.7
2023-02-08T12:06:38.343Z,63.3
2023-02-08T12:12:16.246Z,59.7
2023-02-08T12:18:11.269Z,62.4
2023-02-08T12:23:49.909Z,62.8
2023-02-08T12:35:29.633Z,61.4
2023-02-08T12:41:33.843Z,61.6
2023-02-08T12:47:12.864Z,61.3
2023-02-08T12:58:40.669Z,53.2
2023-02-08T13:04:16.801Z,50.1
2023-02-08T13:10:01.654Z,48.4
2023-02-08T13:16:04.139Z,47.1
2023-02-08T13:21:54.983Z,46.1
2023-02-08T13:27:55.061Z,45.4
2023-02-08T13:33:35.133Z,44.9
2023-02-08T13:39:36.481Z,44.6
2023-02-08T13:45:29.852Z,44.3
2023-02-08T13:51:08.316Z,43.9
2023-02-08T13:56:29.315Z,43.8
2023-02-08T14:02:06.472Z,43.3
2023-02-08T14:07:44.042Z,43
2023-02-08T14:13:24.322Z,42.9
2023-02-08T14:18:47.709Z,42.7
2023-02-08T14:24:24.453Z,42.5
2023-02-08T14:30:01.156Z,42.3
2023-02-08T14:35:40.524Z,42.1
2023-02-08T14:41:25.276Z,41.8
2023-02-08T14:46:50.558Z,41.7
2023-02-08T14:52:27.033Z,41.5
2023-02-08T14:57:48.459Z,41.3
2023-02-08T15:03:10.329Z,41.2
2023-02-08T15:08:55.367Z,41.1
2023-02-08T15:14:34.311Z,40.9
2023-02-08T15:20:14.560Z,40.8
2023-02-08T15:25:52.112Z,40.7
2023-02-08T15:31:40.163Z,40.6
2023-02-08T15:37:17.557Z,40.4
2023-02-08T15:42:55.035Z,40.3
2023-02-08T15:48:32.949Z,40.2
2023-02-08T15:54:09.730Z,40.1
2023-02-08T15:59:42.501Z,40
2023-02-08T16:05:05.454Z,39.9
2023-02-08T16:10:11.849Z,39.8
2023-02-08T16:16:08.360Z,39.7
2023-02-08T16:27:13.219Z,39.5
2023-02-08T16:32:52.239Z,39.4
2023-02-08T16:38:29.858Z,39.3
2023-02-08T16:44:23.663Z,39.3
2023-02-08T16:50:13.784Z,39.2
2023-02-08T16:55:56.215Z,39.1
2023-02-08T17:01:18.275Z,39
2023-02-08T17:06:58.574Z,38.9
2023-02-08T17:12:49.738Z,38.8
2023-02-08T17:18:25.717Z,38.8
2023-02-08T17:24:02.977Z,38.7
2023-02-08T17:35:06.830Z,38.6
2023-02-08T17:40:43.916Z,38.5
2023-02-08T17:51:43.216Z,38.4
2023-02-08T17:57:08.156Z,38.3
2023-02-08T18:02:50.416Z,38.3
2023-02-08T18:08:28.563Z,38.1
2023-02-08T18:14:06.175Z,38.1
2023-02-08T18:19:45.156Z,38.1
2023-02-08T18:25:07.109Z,38
2023-02-08T18:30:45.201Z,37.9
2023-02-08T18:36:26.600Z,37.9
2023-02-08T18:42:04.532Z,37.9
2023-02-08T18:47:42.152Z,37.8
2023-02-08T18:53:37.530Z,37.8
2023-02-08T19:04:38.981Z,37.6
2023-02-08T19:10:16.664Z,37.6
2023-02-08T19:15:54.723Z,37.5
2023-02-08T19:21:32.253Z,37.5
2023-02-08T19:26:54.753Z,37.4
2023-02-08T19:32:32.751Z,37.2
2023-02-08T19:38:10.362Z,37.2
2023-02-08T19:43:47.830Z,37.1
2023-02-08T19:49:45.877Z,37.1
2023-02-08T20:00:40.055Z,37
2023-02-08T20:06:23.747Z,36.9
2023-02-08T20:12:12.979Z,36.9
2023-02-08T20:17:54.340Z,36.9
2023-02-08T20:23:39.251Z,36.9
2023-02-08T20:29:17.005Z,36.9
2023-02-08T20:35:00.088Z,36.9
2023-02-08T20:40:48.526Z,37
2023-02-08T20:46:26.004Z,36.9
2023-02-08T20:52:19.644Z,37
2023-02-08T20:57:57.036Z,37.3
2023-02-08T21:09:06.229Z,38.1
2023-02-08T21:14:45.010Z,38.6
2023-02-08T21:20:25.652Z,38.7
2023-02-08T21:26:03.781Z,38.8
2023-02-08T21:31:41.899Z,38.8
2023-02-08T21:37:21.355Z,38.8
2023-02-08T21:42:58.999Z,38.8
2023-02-08T21:53:58.594Z,38.7
2023-02-08T21:59:38.331Z,38.6
2023-02-08T22:05:00.444Z,38.6
2023-02-08T22:10:37.512Z,38.6
2023-02-08T22:16:18.492Z,38.6
2023-02-08T22:21:55.851Z,38.6
2023-02-08T22:27:32.152Z,38.5
2023-02-08T22:33:12.456Z,38.5
2023-02-08T22:38:34.463Z,38.4
2023-02-08T22:44:11.087Z,38.4
2023-02-08T22:49:48.806Z,38.4
2023-02-08T22:55:25.941Z,38.4
2023-02-08T23:01:02.975Z,38.3
2023-02-08T23:06:40.467Z,38.3
2023-02-08T23:12:17.565Z,38.3
2023-02-08T23:17:54.975Z,38.2
2023-02-08T23:23:35.118Z,38.2
2023-02-08T23:29:12.302Z,38.1
2023-02-08T23:34:33.832Z,38.1
2023-02-08T23:40:11.019Z,38.1
2023-02-08T23:45:49.029Z,38
2023-02-08T23:51:11.082Z,38
2023-02-08T23:56:49.004Z,37.9
